METAR de aeropuertos de Murcia y cercanos

 

LEAL - Alicante
Actualización: 25/02/2017 12:00
Mostly Cloudy
Mostly Cloudy
 Viento del E
Viento: E 11 km/h
Temperatura: 14°C
Rocío: 11°C
Humedad: 82%
Barómetro: 1020 hPa
Nubosidad: Mostly Cloudy
Visibilidad: 10 km
Cloud details: Few Clouds 305 m
Mostly Cloudy 610 m
2017/02/25 11:00 LEAL 251100Z 08006KT 060V140 9999 FEW010 BKN020 14/11 Q1020 NOSIG
LEAB - Albacete
Actualización: 25/02/2017 12:00
Despejado
Despejado
 Viento del NO
Viento: NO 13 km/h
Temperatura: 8°C
Wind Chill: 6°C
Rocío: 2°C
Humedad: 66%
Barómetro: 1021 hPa
Resumen: Despejado
Visibilidad: greater than 10 km
2017/02/25 11:00 LEAB 251100Z 32007KT 300V010 CAVOK 08/02 Q1021 NOSIG
LEAM - Almería
Actualización: 25/02/2017 12:00
Few Clouds
Few Clouds
 Viento del ESE
Viento: ESE 13 km/h
Temperatura: 18°C
Rocío: 11°C
Humedad: 64%
Barómetro: 1020 hPa
Nubosidad: Few Clouds
Visibilidad: 10 km
Cloud details: Few Clouds 610 m
2017/02/25 11:00 LEAM 251100Z 11007KT 070V160 9999 FEW020 18/11 Q1020
 
LERI - Murcia/Alcantarilla
Actualización: 25/02/2017 12:00
Few Clouds
Few Clouds
 Viento del NNE
Viento: NNE 2 km/h
Temperatura: 15°C
Rocío: 7°C
Humedad: 59%
Barómetro: 1020 hPa
Nubosidad: Few Clouds
Visibilidad: 10 km
Cloud details: Few Clouds 762 m
2017/02/25 11:00 LERI 251100Z 02001KT 9999 FEW025 15/07 Q1020 NOSIG
LELC - Murcia/San Javier
Actualización: 25/02/2017 12:00
Mostly Cloudy
Mostly Cloudy
 Viento del E
Viento: E 6 km/h
Temperatura: 16°C
Rocío: 14°C
Humedad: 88%
Barómetro: 1020 hPa
Nubosidad: Mostly Cloudy
Visibilidad: 10 km
Cloud details: Few Clouds 610 m
Mostly Cloudy 823 m
2017/02/25 11:00 LELC 251100Z 08003KT 360V170 9999 FEW020 BKN027 16/14 Q1020 NOSIG

La estación de MeteoMurcia.com, publica sus datos en los siguientes proyectos:

Meteoclimatic www.awekas.at

W3Counter
Web Analytics